Estación Meteorológica Peña el Pijo (Robertgarden) [ 11/18/17 00:00:03 CET ]

Fecha Hora Presion(HPa) Temp (°C) Humedad % Rocio (°C) Viento ( m/s) Direccion Lluvia 1Hora(mm) Lluvia 24H(mm) LLuvia Total(mm)
2017-Sep-26 01:01:39 1013.400 11.2 64 4.6         1457.65
2017-Sep-26 02:01:38 1013.300 10.1 67 4.2         1457.65
2017-Sep-26 03:01:33 1012.900 9.4 69 4.0         1457.65
2017-Sep-26 04:01:31 1012.800 8.8 71 3.8         1457.65
2017-Sep-26 05:01:31 1012.300 8.8 69 3.4         1457.65
2017-Sep-26 06:01:35 1012.300 7.8 71 2.9         1457.65
2017-Sep-26 07:01:56 1011.900 7.2 73 2.7         1457.65
2017-Sep-26 08:01:39 1012.300 7.0 75 2.8         1457.65
2017-Sep-26 09:01:46 1012.700 6.6 76 2.6         1457.65
2017-Sep-26 10:01:46 1012.700 16.9 61 9.3         1457.65
2017-Sep-26 11:01:48 1012.700 22.1 42 8.5         1457.65
2017-Sep-26 12:01:38 1012.200 26.3 34 9.1         1457.65
2017-Sep-26 13:01:46 1011.900 27.3 29 7.7         1457.65
2017-Sep-26 14:01:41 1011.500 27.8 28 7.5         1457.65
2017-Sep-26 15:01:47 1010.900 28.8 28 8.3         1457.65
2017-Sep-26 16:02:02 1010.500 29.6 28 9.0         1457.65
2017-Sep-26 17:01:50 1010.400 29.2 30 9.9         1457.65
2017-Sep-26 18:01:37 1010.600 25.9 37 10.0         1457.65
2017-Sep-26 19:01:42 1011.200 22.9 46 10.6 0.5 NNW     1457.65
2017-Sep-26 20:01:42 1011.600 20.3 56 11.2         1457.65
2017-Sep-26 21:01:51 1012.500 18.7 66 12.1         1457.65
2017-Sep-26 22:02:00 1013.000 17.4 71 12.1         1457.65
2017-Sep-26 23:01:42 1013.400 15.6 73 10.8         1457.65

Temperatura Máxima:29°    Temperatura Mínima:
Presión Máxima:1013.400 Hpa    Presión Mínima:1010.400 Hpa


Volver